This is the latest recevied weather packets stored in our database for station/object SP1BMW-13. If no packets are shown the sender has not sent any weather packets the latest 10 day(s).
| Time | Temp. | Humidity | Pressure | Rain* | Wind** | Luminosity | Snow |
|---|---|---|---|---|---|---|---|
| 1787997381 | 24.44° C | 48% | 1010.1 hPa | 0 mm | 2.24 m/s, 170° | 640 W/m² | - |
| 1787997321 | 24.44° C | 48% | 1010 hPa | 0 mm | 1.34 m/s, 104° | 673 W/m² | - |
| 1787997261 | 23.89° C | 50% | 1009.7 hPa | 0 mm | 0.45 m/s, 275° | 683 W/m² | - |
| 1787997201 | 23.89° C | 49% | 1010.1 hPa | 0 mm | 1.34 m/s, 57° | 699 W/m² | - |
| 1787997141 | 23.89° C | 51% | 1010.2 hPa | 0 mm | 0.45 m/s, 57° | 709 W/m² | - |
| 1787997081 | 23.89° C | 51% | 1010 hPa | 0 mm | 0.89 m/s, 338° | 686 W/m² | - |
| 1787997022 | 23.89° C | 50% | 1010.1 hPa | 0 mm | 0.45 m/s, 327° | 680 W/m² | - |
| 1787996961 | 23.89° C | 50% | 1009.8 hPa | 0 mm | 2.68 m/s, 290° | 668 W/m² | - |
| 1787996901 | 23.89° C | 51% | 1010.2 hPa | 0 mm | 0.89 m/s, 250° | 654 W/m² | - |
| 1787996841 | 23.89° C | 50% | 1010.1 hPa | 0 mm | 1.34 m/s, 242° | 656 W/m² | - |
| 1787996781 | 23.89° C | 50% | 1009.9 hPa | 0 mm | 1.34 m/s, 73° | 654 W/m² | - |
| 1787996721 | 23.89° C | 51% | 1009.8 hPa | 0 mm | 1.34 m/s, 173° | 659 W/m² | - |
| 1787996661 | 23.33° C | 50% | 1010 hPa | 0 mm | 2.24 m/s, 256° | 648 W/m² | - |
| 1787996601 | 23.33° C | 51% | 1009.9 hPa | 0 mm | 1.34 m/s, 160° | 647 W/m² | - |
| 1787996541 | 23.33° C | 52% | 1010.1 hPa | 0 mm | 1.34 m/s, 254° | 647 W/m² | - |
| 1787996481 | 23.33° C | 51% | 1010 hPa | 0 mm | 2.24 m/s, 297° | 634 W/m² | - |
| 1787996421 | 23.33° C | 52% | 1009.9 hPa | 0 mm | 0.89 m/s, 33° | 633 W/m² | - |
| 1787996361 | 23.33° C | 52% | 1010 hPa | 0 mm | 1.34 m/s, 334° | 589 W/m² | - |
| 1787996301 | 23.33° C | 52% | 1010 hPa | 0 mm | 0.89 m/s, 331° | 554 W/m² | - |
| 1787996241 | 23.33° C | 51% | 1010 hPa | 0 mm | 2.24 m/s, 81° | 608 W/m² | - |
| 1787996121 | 22.78° C | 54% | 1010.2 hPa | 0 mm | 0.89 m/s, 8° | 634 W/m² | - |
| 1787996061 | 22.78° C | 56% | 1010 hPa | 0 mm | 0.89 m/s, 242° | 644 W/m² | - |
| 1787996001 | 22.78° C | 55% | 1010 hPa | 0 mm | 0.45 m/s, 245° | 654 W/m² | - |
| 1787995941 | 22.78° C | 55% | 1009.7 hPa | 0 mm | 0.89 m/s, 328° | 641 W/m² | - |
| 1787995881 | 22.78° C | 53% | 1009.9 hPa | 0 mm | 1.34 m/s, 277° | 615 W/m² | - |
* Rain latest hour (hover to see other rain measurements)
** Current wind speed in m/s (hover to see current wind gust speed)